Time;durP1;ratioP1;P1;durP2;ratioP2;P2;SDS_P1;SDS_P2;PMS_P1;PMS_P2;Temp;Humidity;BMP_temperature;BMP_pressure;BME280_temperature;BME280_humidity;BME280_pressure;Samples;Min_cycle;Max_cycle;Signal;HPM_P1;HPM_P2
2021/04/19 00:01:46;;;;;;;1.85;1.75;;;;;;;;;;5016725;28;20192;-44
2021/04/19 00:04:12;;;;;;;1.77;1.67;;;;;;;;;;5027734;28;20298;-44
2021/04/19 00:06:39;;;;;;;1.55;1.45;;;;;;;;;;5037117;28;20649;-44
2021/04/19 00:09:05;;;;;;;1.75;1.63;;;;;;;;;;5036330;28;20176;-44
2021/04/19 00:11:31;;;;;;;2.22;1.80;;;;;;;;;;5036366;28;20203;-44
2021/04/19 00:13:57;;;;;;;3.85;1.92;;;;;;;;;;5034366;28;20204;-44
2021/04/19 00:16:24;;;;;;;1.77;1.67;;;;;;;;;;5036253;28;20179;-44
2021/04/19 00:18:50;;;;;;;1.98;1.88;;;;;;;;;;5036314;28;20442;-44
2021/04/19 00:21:15;;;;;;;1.75;1.65;;;;;;;;;;5035895;28;20176;-44
2021/04/19 00:23:41;;;;;;;1.95;1.83;;;;;;;;;;5036304;28;20598;-44
2021/04/19 00:26:07;;;;;;;1.88;1.70;;;;;;;;;;5036692;28;20175;-44
2021/04/19 00:28:34;;;;;;;1.60;1.50;;;;;;;;;;5036526;28;20547;-44
2021/04/19 00:31:00;;;;;;;2.30;1.67;;;;;;;;;;5035959;28;20192;-43
2021/04/19 00:33:26;;;;;;;2.13;1.83;;;;;;;;;;5035931;28;20216;-43
2021/04/19 00:35:52;;;;;;;1.80;1.70;;;;;;;;;;5036156;28;20186;-43
2021/04/19 00:38:18;;;;;;;1.60;1.50;;;;;;;;;;5034762;28;20175;-43
2021/04/19 00:40:44;;;;;;;1.60;1.50;;;;;;;;;;5029286;28;20181;-43
2021/04/19 00:43:10;;;;;;;1.77;1.67;;;;;;;;;;5027257;28;20202;-43
2021/04/19 00:45:37;;;;;;;2.03;1.83;;;;;;;;;;5030551;28;20266;-43
2021/04/19 00:48:04;;;;;;;1.77;1.60;;;;;;;;;;5031101;28;20195;-43
2021/04/19 00:50:31;;;;;;;1.50;1.40;;;;;;;;;;5035586;28;20422;-43
2021/04/19 00:52:58;;;;;;;1.67;1.58;;;;;;;;;;5035964;28;20200;-43
2021/04/19 00:55:24;;;;;;;1.73;1.63;;;;;;;;;;5035752;28;20186;-43
2021/04/19 00:57:50;;;;;;;1.85;1.73;;;;;;;;;;5035909;28;20259;-43
2021/04/19 01:00:22;;;;;;;1.67;1.58;;;;;;;;;;5035754;28;20513;-44
2021/04/19 01:02:48;;;;;;;1.55;1.45;;;;;;;;;;5034401;28;20481;-44
2021/04/19 01:05:16;;;;;;;1.85;1.40;;;;;;;;;;5035588;28;20184;-44
2021/04/19 01:07:42;;;;;;;2.35;1.55;;;;;;;;;;5035173;28;20214;-44
2021/04/19 01:10:09;;;;;;;1.65;1.55;;;;;;;;;;5035540;28;20215;-44
2021/04/19 01:12:35;;;;;;;1.48;1.38;;;;;;;;;;5035117;28;20196;-44
2021/04/19 01:15:01;;;;;;;1.52;1.40;;;;;;;;;;5035568;28;20178;-44
2021/04/19 01:17:27;;;;;;;1.60;1.50;;;;;;;;;;5035310;28;20180;-44
2021/04/19 01:19:53;;;;;;;1.80;1.67;;;;;;;;;;5032047;28;20177;-44
2021/04/19 01:22:19;;;;;;;1.60;1.50;;;;;;;;;;5034997;28;20188;-44
2021/04/19 01:24:45;;;;;;;1.50;1.40;;;;;;;;;;5034555;28;20180;-44
2021/04/19 01:27:11;;;;;;;1.60;1.50;;;;;;;;;;5034938;28;20578;-44
2021/04/19 01:29:37;;;;;;;1.60;1.50;;;;;;;;;;5035275;28;20168;-44
2021/04/19 01:32:03;;;;;;;1.45;1.35;;;;;;;;;;5034887;28;20191;-44
2021/04/19 01:34:29;;;;;;;1.60;1.50;;;;;;;;;;5034806;28;20196;-44
2021/04/19 01:36:55;;;;;;;1.42;1.33;;;;;;;;;;5029520;28;20306;-44
2021/04/19 01:39:21;;;;;;;1.70;1.60;;;;;;;;;;5034842;28;20172;-44
2021/04/19 01:41:47;;;;;;;1.70;1.60;;;;;;;;;;5034518;28;20180;-44
2021/04/19 01:44:14;;;;;;;1.60;1.50;;;;;;;;;;5034727;28;20180;-44
2021/04/19 01:46:41;;;;;;;1.60;1.50;;;;;;;;;;5034787;28;20187;-44
2021/04/19 01:49:17;;;;;;;1.50;1.40;;;;;;;;;;5023439;28;20189;-44
2021/04/19 01:51:43;;;;;;;1.40;1.30;;;;;;;;;;5029696;28;20309;-44
2021/04/19 01:54:09;;;;;;;1.10;1.10;;;;;;;;;;5034433;28;20226;-44
2021/04/19 01:56:35;;;;;;;1.77;1.67;;;;;;;;;;5034460;28;20211;-44
2021/04/19 01:59:02;;;;;;;1.70;1.60;;;;;;;;;;5034908;28;20604;-44
2021/04/19 02:01:29;;;;;;;1.88;1.45;;;;;;;;;;5034266;28;20627;-44
2021/04/19 02:03:55;;;;;;;1.52;1.42;;;;;;;;;;5017514;28;20192;-44
2021/04/19 02:06:38;;;;;;;1.45;1.30;;;;;;;;;;5016811;28;20202;-44
2021/04/19 02:09:09;;;;;;;1.58;1.48;;;;;;;;;;5033900;28;20187;-44
2021/04/19 02:11:41;;;;;;;1.58;1.50;;;;;;;;;;5034010;28;20202;-44
2021/04/19 02:14:16;;;;;;;1.67;1.58;;;;;;;;;;5034543;28;20211;-44
2021/04/19 02:16:47;;;;;;;1.50;1.40;;;;;;;;;;5033987;28;20187;-44
2021/04/19 02:19:31;;;;;;;1.50;1.40;;;;;;;;;;5029738;28;20176;-44
2021/04/19 02:22:17;;;;;;;1.40;1.35;;;;;;;;;;5025319;28;20185;-44
2021/04/19 02:24:47;;;;;;;1.60;1.48;;;;;;;;;;5025289;28;20199;-44
2021/04/19 02:27:17;;;;;;;1.30;1.30;;;;;;;;;;5033409;28;20191;-44
2021/04/19 02:29:48;;;;;;;1.23;1.23;;;;;;;;;;5033404;28;20420;-44
2021/04/19 02:32:15;;;;;;;1.13;1.10;;;;;;;;;;5033123;28;20613;-44
2021/04/19 02:34:43;;;;;;;1.50;1.40;;;;;;;;;;5034484;28;20187;-44
2021/04/19 02:37:09;;;;;;;1.70;1.60;;;;;;;;;;5033712;28;20180;-44
2021/04/19 02:39:38;;;;;;;1.40;1.30;;;;;;;;;;5034017;28;20215;-44
2021/04/19 02:42:04;;;;;;;1.67;1.58;;;;;;;;;;5033692;28;20478;-44
2021/04/19 02:44:32;;;;;;;1.50;1.40;;;;;;;;;;5033336;28;20230;-44
2021/04/19 02:46:58;;;;;;;1.50;1.40;;;;;;;;;;5033793;28;20190;-44
2021/04/19 02:49:26;;;;;;;1.30;1.30;;;;;;;;;;5034265;28;20179;-44
2021/04/19 02:51:54;;;;;;;1.23;1.13;;;;;;;;;;5033770;28;20219;-44
2021/04/19 02:54:22;;;;;;;1.40;1.30;;;;;;;;;;5029928;28;20286;-44
2021/04/19 02:56:48;;;;;;;1.30;1.30;;;;;;;;;;5034096;28;20187;-44
2021/04/19 02:59:15;;;;;;;1.20;1.20;;;;;;;;;;5033398;28;20184;-44
2021/04/19 03:01:42;;;;;;;1.42;1.33;;;;;;;;;;5033385;28;20590;-44
2021/04/19 03:04:10;;;;;;;1.58;1.48;;;;;;;;;;5034341;28;20176;-43
2021/04/19 03:06:39;;;;;;;1.42;1.10;;;;;;;;;;5033815;28;20234;-43
2021/04/19 03:09:05;;;;;;;1.20;1.20;;;;;;;;;;5033725;28;20194;-43
2021/04/19 03:11:34;;;;;;;1.42;1.35;;;;;;;;;;5033106;28;20257;-43
2021/04/19 03:14:02;;;;;;;1.45;1.38;;;;;;;;;;5019954;28;20260;-43
2021/04/19 03:16:29;;;;;;;1.13;1.10;;;;;;;;;;5020321;28;20168;-43
2021/04/19 03:18:56;;;;;;;1.33;1.23;;;;;;;;;;5034136;28;20543;-44
2021/04/19 03:21:22;;;;;;;1.05;1.05;;;;;;;;;;5032985;28;20211;-44
2021/04/19 03:23:50;;;;;;;1.10;1.10;;;;;;;;;;5033672;28;20562;-44
2021/04/19 03:26:17;;;;;;;1.40;1.30;;;;;;;;;;5033701;28;20176;-44
2021/04/19 03:28:45;;;;;;;1.38;1.30;;;;;;;;;;5018095;28;20475;-44
2021/04/19 03:31:15;;;;;;;1.20;1.20;;;;;;;;;;5033333;28;20237;-44
2021/04/19 03:33:41;;;;;;;1.20;1.20;;;;;;;;;;5033373;28;20203;-44
2021/04/19 03:36:08;;;;;;;1.10;1.10;;;;;;;;;;5033437;28;20180;-44
2021/04/19 03:38:34;;;;;;;1.15;1.15;;;;;;;;;;5033139;28;20190;-44
2021/04/19 03:41:01;;;;;;;1.25;1.25;;;;;;;;;;5032754;28;20184;-44
2021/04/19 03:43:27;;;;;;;1.35;1.25;;;;;;;;;;5033669;28;20192;-44
2021/04/19 03:45:55;;;;;;;1.48;1.38;;;;;;;;;;5033543;28;20454;-44
2021/04/19 03:48:22;;;;;;;1.17;1.17;;;;;;;;;;5034477;28;20183;-44
2021/04/19 03:50:55;;;;;;;1.35;1.25;;;;;;;;;;5036641;28;20262;-45
2021/04/19 03:53:25;;;;;;;1.40;1.30;;;;;;;;;;5020224;28;20202;-44
2021/04/19 03:55:52;;;;;;;1.10;1.10;;;;;;;;;;5034947;28;20175;-44
2021/04/19 03:58:18;;;;;;;1.15;1.15;;;;;;;;;;5031531;28;20188;-44
2021/04/19 04:00:46;;;;;;;1.45;1.33;;;;;;;;;;5030576;28;20567;-44
2021/04/19 04:03:13;;;;;;;0.90;0.90;;;;;;;;;;5036752;28;20172;-44
2021/04/19 04:05:39;;;;;;;1.83;1.42;;;;;;;;;;5036287;28;20191;-44
2021/04/19 04:08:06;;;;;;;2.50;1.30;;;;;;;;;;5036445;28;20261;-44
2021/04/19 04:10:33;;;;;;;1.35;1.25;;;;;;;;;;5026572;28;20465;-44
2021/04/19 04:12:59;;;;;;;1.45;1.23;;;;;;;;;;5036591;28;20603;-42
2021/04/19 04:15:25;;;;;;;4.95;1.40;;;;;;;;;;5036721;28;20191;-42
2021/04/19 04:17:52;;;;;;;3.30;1.42;;;;;;;;;;5034551;28;20180;-42
2021/04/19 04:20:17;;;;;;;2.90;1.92;;;;;;;;;;5035819;28;20259;-42
2021/04/19 04:22:44;;;;;;;4.03;1.55;;;;;;;;;;5036073;28;20271;-42
2021/04/19 04:25:10;;;;;;;3.47;1.60;;;;;;;;;;5035197;28;20249;-42
2021/04/19 04:27:37;;;;;;;2.78;1.60;;;;;;;;;;5036326;28;20188;-42
2021/04/19 04:30:04;;;;;;;3.35;1.58;;;;;;;;;;5036481;28;20184;-42
2021/04/19 04:32:30;;;;;;;6.82;2.10;;;;;;;;;;5036072;28;20179;-42
2021/04/19 04:34:56;;;;;;;3.78;1.77;;;;;;;;;;5036163;28;20176;-42
2021/04/19 04:37:22;;;;;;;2.83;1.45;;;;;;;;;;5033755;28;20445;-42
2021/04/19 04:39:48;;;;;;;2.65;1.63;;;;;;;;;;5022907;28;20203;-43
2021/04/19 04:42:17;;;;;;;3.83;1.73;;;;;;;;;;5018374;28;20560;-42
2021/04/19 04:44:44;;;;;;;3.00;1.67;;;;;;;;;;5018495;28;20181;-42
2021/04/19 04:47:17;;;;;;;3.92;1.77;;;;;;;;;;5036642;28;20548;-42
2021/04/19 04:50:01;;;;;;;4.13;1.80;;;;;;;;;;5036803;28;20455;-42
2021/04/19 04:52:29;;;;;;;4.72;1.80;;;;;;;;;;5035499;28;20188;-42
2021/04/19 04:54:56;;;;;;;2.75;1.75;;;;;;;;;;5030082;28;20180;-42
2021/04/19 04:57:22;;;;;;;5.07;1.70;;;;;;;;;;5049542;28;20236;-42
2021/04/19 04:59:52;;;;;;;3.08;1.42;;;;;;;;;;5038868;28;20175;-43
2021/04/19 05:02:22;;;;;;;4.03;1.70;;;;;;;;;;5033842;28;20491;-43
2021/04/19 05:04:49;;;;;;;2.83;1.50;;;;;;;;;;5036172;28;20225;-43
2021/04/19 05:07:16;;;;;;;2.92;1.80;;;;;;;;;;5032590;28;20202;-43
2021/04/19 05:09:44;;;;;;;2.08;1.50;;;;;;;;;;5035734;28;20180;-43
2021/04/19 05:12:10;;;;;;;3.08;1.70;;;;;;;;;;5034914;28;20230;-42
2021/04/19 05:14:38;;;;;;;3.75;1.85;;;;;;;;;;5035398;28;20191;-42
2021/04/19 05:17:04;;;;;;;3.00;1.77;;;;;;;;;;5034945;28;20242;-42
2021/04/19 05:19:30;;;;;;;2.97;1.63;;;;;;;;;;5034675;28;20230;-42
2021/04/19 05:21:56;;;;;;;3.45;2.05;;;;;;;;;;5024333;28;20626;-42
2021/04/19 05:24:22;;;;;;;1.98;1.40;;;;;;;;;;5033047;28;20187;-42
2021/04/19 05:26:48;;;;;;;2.67;1.27;;;;;;;;;;5032331;28;20282;-42
2021/04/19 05:29:14;;;;;;;2.30;1.73;;;;;;;;;;5033049;28;20338;-42
2021/04/19 05:31:41;;;;;;;2.67;1.60;;;;;;;;;;5034555;28;20218;-42
2021/04/19 05:34:07;;;;;;;1.98;1.75;;;;;;;;;;5030003;28;20239;-42
2021/04/19 05:36:33;;;;;;;1.83;1.60;;;;;;;;;;5015968;28;20263;-42
2021/04/19 05:38:59;;;;;;;2.60;1.58;;;;;;;;;;5029126;28;20456;-42
2021/04/19 05:41:25;;;;;;;3.75;1.50;;;;;;;;;;5035097;28;20257;-42
2021/04/19 05:43:52;;;;;;;3.13;1.80;;;;;;;;;;5035492;28;20178;-42
2021/04/19 05:46:19;;;;;;;2.28;1.70;;;;;;;;;;5035127;28;20262;-42
2021/04/19 05:48:45;;;;;;;2.13;1.85;;;;;;;;;;5025296;28;20191;-42
2021/04/19 05:51:24;;;;;;;2.92;1.90;;;;;;;;;;5031343;28;20302;-42
2021/04/19 05:53:55;;;;;;;2.75;1.77;;;;;;;;;;5035388;28;20203;-42
2021/04/19 05:56:27;;;;;;;2.00;1.80;;;;;;;;;;5035348;28;20199;-42
2021/04/19 05:58:57;;;;;;;1.75;1.63;;;;;;;;;;5035280;28;20172;-42
2021/04/19 06:01:24;;;;;;;2.55;1.73;;;;;;;;;;5034957;28;20164;-42
2021/04/19 06:03:58;;;;;;;2.00;1.80;;;;;;;;;;5017840;28;20197;-42
2021/04/19 06:06:43;;;;;;;1.75;1.65;;;;;;;;;;5015505;28;20194;-42
2021/04/19 06:09:27;;;;;;;1.90;1.70;;;;;;;;;;5015416;28;20173;-42
2021/04/19 06:11:55;;;;;;;1.85;1.70;;;;;;;;;;5027952;28;20199;-42
2021/04/19 06:14:24;;;;;;;1.80;1.70;;;;;;;;;;5034021;28;20230;-42
2021/04/19 06:16:51;;;;;;;2.47;1.85;;;;;;;;;;5034254;28;20171;-42
2021/04/19 06:19:17;;;;;;;2.00;1.70;;;;;;;;;;5034969;28;20172;-43
2021/04/19 06:21:44;;;;;;;2.55;2.03;;;;;;;;;;5034405;28;20160;-42
2021/04/19 06:24:11;;;;;;;1.88;1.73;;;;;;;;;;5035014;28;20176;-42
2021/04/19 06:26:37;;;;;;;1.85;1.65;;;;;;;;;;5035173;28;20535;-42
2021/04/19 06:29:08;;;;;;;2.30;1.80;;;;;;;;;;5034513;28;20190;-42
2021/04/19 06:31:35;;;;;;;2.00;1.65;;;;;;;;;;5045866;28;20265;-42
2021/04/19 06:34:08;;;;;;;1.80;1.70;;;;;;;;;;5034849;28;20203;-42
2021/04/19 06:36:35;;;;;;;3.15;2.10;;;;;;;;;;5021957;28;20188;-42
2021/04/19 06:39:01;;;;;;;1.50;1.40;;;;;;;;;;5021872;28;20585;-42
2021/04/19 06:41:27;;;;;;;2.72;1.63;;;;;;;;;;5017646;28;20189;-42
2021/04/19 06:43:56;;;;;;;1.67;1.58;;;;;;;;;;5014589;28;20187;-42
2021/04/19 06:46:22;;;;;;;1.98;1.52;;;;;;;;;;5032887;28;20179;-42
2021/04/19 06:48:49;;;;;;;1.63;1.48;;;;;;;;;;5033456;28;20455;-42
2021/04/19 06:51:16;;;;;;;1.90;1.80;;;;;;;;;;5031275;28;20743;-42
2021/04/19 06:53:42;;;;;;;1.80;1.70;;;;;;;;;;5033854;28;20200;-42
2021/04/19 06:56:10;;;;;;;2.00;1.85;;;;;;;;;;5034383;28;20546;-42
2021/04/19 06:58:37;;;;;;;1.60;1.50;;;;;;;;;;5027963;28;20179;-42
2021/04/19 07:01:04;;;;;;;1.92;1.83;;;;;;;;;;5014491;28;20188;-42
2021/04/19 07:03:30;;;;;;;2.10;2.00;;;;;;;;;;5013425;28;20176;-42
2021/04/19 07:05:56;;;;;;;1.88;1.73;;;;;;;;;;5013799;28;20185;-42
2021/04/19 07:08:31;;;;;;;1.88;1.77;;;;;;;;;;5028144;28;20247;-43
2021/04/19 07:11:05;;;;;;;1.80;1.70;;;;;;;;;;5032933;28;20190;-43
2021/04/19 07:13:31;;;;;;;2.25;1.90;;;;;;;;;;5033345;28;20207;-42
2021/04/19 07:15:58;;;;;;;1.73;1.63;;;;;;;;;;5022336;28;20499;-42
2021/04/19 07:18:24;;;;;;;2.20;2.00;;;;;;;;;;5022120;28;20176;-42
2021/04/19 07:20:50;;;;;;;2.20;1.70;;;;;;;;;;5033323;28;20218;-42
2021/04/19 07:23:16;;;;;;;2.00;1.90;;;;;;;;;;5036668;28;20414;-42
2021/04/19 07:25:46;;;;;;;1.70;1.60;;;;;;;;;;5037365;28;20175;-42
2021/04/19 07:28:13;;;;;;;2.75;1.88;;;;;;;;;;5036816;28;20784;-42
2021/04/19 07:30:39;;;;;;;1.85;1.75;;;;;;;;;;5027350;28;20625;-42
2021/04/19 07:33:05;;;;;;;1.85;1.75;;;;;;;;;;5036123;28;20279;-42
2021/04/19 07:35:33;;;;;;;1.67;1.58;;;;;;;;;;5037819;28;20164;-42
2021/04/19 07:38:00;;;;;;;2.00;1.80;;;;;;;;;;5037541;28;20258;-42
2021/04/19 07:40:34;;;;;;;2.15;1.95;;;;;;;;;;5036785;28;20180;-42
2021/04/19 07:43:10;;;;;;;1.80;1.70;;;;;;;;;;5036996;28;20193;-42
2021/04/19 07:45:36;;;;;;;2.28;2.00;;;;;;;;;;5037399;28;20270;-42
2021/04/19 07:48:02;;;;;;;1.80;1.70;;;;;;;;;;5030905;28;20184;-42
2021/04/19 07:50:29;;;;;;;1.98;1.77;;;;;;;;;;5022820;28;20221;-42
2021/04/19 07:52:57;;;;;;;1.92;1.83;;;;;;;;;;5030452;28;20245;-42
2021/04/19 07:55:25;;;;;;;1.88;1.77;;;;;;;;;;5036267;28;20226;-42
2021/04/19 07:57:51;;;;;;;3.15;1.98;;;;;;;;;;5037193;28;20191;-42
2021/04/19 08:00:30;;;;;;;1.90;1.80;;;;;;;;;;5035736;28;20172;-42
2021/04/19 08:03:00;;;;;;;1.90;1.80;;;;;;;;;;5017556;28;20230;-42
2021/04/19 08:05:30;;;;;;;1.63;1.52;;;;;;;;;;5024078;28;20206;-42
2021/04/19 08:07:57;;;;;;;2.05;1.90;;;;;;;;;;5036912;28;20416;-42
2021/04/19 08:10:22;;;;;;;2.42;1.95;;;;;;;;;;5036088;28;20206;-42
2021/04/19 08:12:52;;;;;;;1.73;1.63;;;;;;;;;;5036470;28;20200;-42
2021/04/19 08:15:21;;;;;;;2.72;2.10;;;;;;;;;;5036971;28;20230;-43
2021/04/19 08:17:47;;;;;;;2.10;1.95;;;;;;;;;;5036851;28;20164;-43
2021/04/19 08:20:15;;;;;;;2.45;2.03;;;;;;;;;;5036896;28;20194;-43
2021/04/19 08:22:44;;;;;;;1.88;1.70;;;;;;;;;;5028995;28;20172;-42
2021/04/19 08:25:21;;;;;;;2.42;2.00;;;;;;;;;;5036801;28;20180;-42
2021/04/19 08:28:07;;;;;;;2.10;1.90;;;;;;;;;;5016173;28;20200;-42
2021/04/19 08:30:33;;;;;;;1.70;1.60;;;;;;;;;;5028685;28;20194;-42
2021/04/19 08:32:59;;;;;;;3.45;2.05;;;;;;;;;;5035833;28;20196;-42
2021/04/19 08:35:26;;;;;;;3.33;2.20;;;;;;;;;;5035502;28;20449;-42
2021/04/19 08:37:53;;;;;;;2.30;2.10;;;;;;;;;;5035439;28;20448;-42
2021/04/19 08:40:20;;;;;;;1.92;1.80;;;;;;;;;;5023632;28;20187;-42
2021/04/19 08:42:46;;;;;;;2.10;2.00;;;;;;;;;;5030074;28;20219;-42
2021/04/19 08:47:20;;;;;;;3.22;2.15;;;;;;;;;;5077836;28;20471;-44
2021/04/19 08:49:46;;;;;;;3.13;2.00;;;;;;;;;;5071751;28;20175;-42
2021/04/19 08:52:13;;;;;;;2.50;2.30;;;;;;;;;;5071192;28;20197;-40
2021/04/19 08:54:39;;;;;;;4.75;2.17;;;;;;;;;;5071190;28;20232;-44
2021/04/19 08:57:05;;;;;;;10.25;3.28;;;;;;;;;;5070963;28;20191;-41
2021/04/19 08:59:31;;;;;;;8.85;2.60;;;;;;;;;;5052456;28;20258;-41
2021/04/19 09:01:57;;;;;;;4.72;2.65;;;;;;;;;;5063561;28;20266;-42
2021/04/19 09:04:24;;;;;;;5.90;2.33;;;;;;;;;;5071211;28;20452;-41
2021/04/19 09:06:52;;;;;;;4.45;2.35;;;;;;;;;;5071042;28;20206;-40
2021/04/19 09:09:33;;;;;;;8.20;2.35;;;;;;;;;;5070095;28;20197;-43
2021/04/19 09:11:59;;;;;;;5.50;2.42;;;;;;;;;;5068436;28;20167;-43
2021/04/19 09:14:34;;;;;;;8.25;3.35;;;;;;;;;;5068172;28;20171;-43
2021/04/19 09:19:16;;;;;;;7.15;3.08;;;;;;;;;;5089944;27;20605;-40
2021/04/19 09:21:44;;;;;;;7.20;3.38;;;;;;;;;;5082885;28;20196;-40
2021/04/19 09:24:12;;;;;;;7.65;3.17;;;;;;;;;;5090373;28;20174;-40
2021/04/19 09:26:50;;;;;;;4.22;2.92;;;;;;;;;;5091407;28;20267;-43
2021/04/19 09:29:39;;;;;;;9.95;2.95;;;;;;;;;;5091513;28;20264;-43
2021/04/19 09:32:06;;;;;;;7.43;3.00;;;;;;;;;;5081448;28;20194;-43
2021/04/19 09:34:44;;;;;;;6.28;3.30;;;;;;;;;;5090746;28;20231;-43
2021/04/19 09:37:11;;;;;;;4.35;3.00;;;;;;;;;;5089303;28;20197;-43
2021/04/19 09:39:43;;;;;;;7.32;3.17;;;;;;;;;;5090932;28;20170;-43
2021/04/19 09:42:09;;;;;;;6.22;3.05;;;;;;;;;;5088763;28;20190;-43
2021/04/19 09:44:48;;;;;;;4.97;3.38;;;;;;;;;;5090959;28;20170;-43
2021/04/19 09:47:34;;;;;;;7.15;3.25;;;;;;;;;;5091013;28;20207;-43
2021/04/19 09:50:00;;;;;;;6.20;2.83;;;;;;;;;;5084228;28;20233;-44
2021/04/19 09:52:26;;;;;;;5.10;2.78;;;;;;;;;;5074887;28;20289;-43
2021/04/19 09:54:52;;;;;;;6.85;3.28;;;;;;;;;;5080870;28;20253;-43
2021/04/19 09:57:18;;;;;;;4.88;3.47;;;;;;;;;;5091442;28;20194;-43
2021/04/19 09:59:52;;;;;;;5.28;2.92;;;;;;;;;;5091546;28;20184;-43
2021/04/19 10:02:18;;;;;;;5.38;3.10;;;;;;;;;;5088052;28;20248;-43
2021/04/19 10:04:46;;;;;;;6.43;3.08;;;;;;;;;;5085512;28;20185;-43
2021/04/19 10:07:12;;;;;;;4.90;3.22;;;;;;;;;;5073800;28;20501;-43
2021/04/19 10:09:40;;;;;;;4.70;3.20;;;;;;;;;;5083870;28;20254;-43
2021/04/19 10:12:07;;;;;;;5.03;3.35;;;;;;;;;;5082435;28;20206;-43
2021/04/19 10:14:37;;;;;;;4.72;3.30;;;;;;;;;;5088739;28;20217;-43
2021/04/19 10:17:27;;;;;;;5.60;3.17;;;;;;;;;;5074492;28;20597;-43
2021/04/19 10:19:53;;;;;;;4.05;2.90;;;;;;;;;;5089381;28;20182;-43
2021/04/19 10:22:20;;;;;;;5.90;3.10;;;;;;;;;;5087607;28;20419;-43
2021/04/19 10:24:53;;;;;;;4.57;3.22;;;;;;;;;;5076152;28;20257;-43
2021/04/19 10:27:29;;;;;;;6.07;3.30;;;;;;;;;;5072248;28;20179;-43
2021/04/19 10:30:07;;;;;;;4.22;2.92;;;;;;;;;;5060405;28;20262;-43
2021/04/19 10:32:33;;;;;;;5.60;2.90;;;;;;;;;;5058569;28;20191;-44
2021/04/19 10:34:59;;;;;;;4.35;3.50;;;;;;;;;;5058962;28;20628;-44
2021/04/19 10:37:25;;;;;;;5.60;3.40;;;;;;;;;;5059399;28;20237;-44
2021/04/19 10:39:51;;;;;;;5.88;3.20;;;;;;;;;;5068485;28;20714;-43
2021/04/19 10:42:27;;;;;;;6.80;3.45;;;;;;;;;;5056862;28;20506;-43
2021/04/19 10:44:55;;;;;;;4.15;2.92;;;;;;;;;;5057164;28;20215;-43
2021/04/19 10:47:30;;;;;;;4.95;3.28;;;;;;;;;;5068459;28;20210;-43
2021/04/19 10:49:56;;;;;;;4.38;2.75;;;;;;;;;;5064658;28;20200;-43
2021/04/19 10:52:22;;;;;;;5.07;3.00;;;;;;;;;;5058714;28;20182;-43
2021/04/19 10:54:48;;;;;;;7.75;3.35;;;;;;;;;;5063545;28;20214;-43
2021/04/19 10:57:29;;;;;;;4.22;3.13;;;;;;;;;;5062065;28;20210;-44
2021/04/19 10:59:57;;;;;;;5.72;3.17;;;;;;;;;;5067938;28;20174;-43
2021/04/19 11:02:24;;;;;;;7.07;2.95;;;;;;;;;;5072484;28;20217;-43
2021/04/19 11:04:50;;;;;;;6.57;3.40;;;;;;;;;;5076489;28;20205;-43
2021/04/19 11:07:26;;;;;;;6.47;3.42;;;;;;;;;;5071380;28;20183;-43
2021/04/19 11:10:11;;;;;;;5.60;3.08;;;;;;;;;;5065689;28;20224;-44
2021/04/19 11:12:37;;;;;;;3.63;3.30;;;;;;;;;;5076117;28;20167;-44
2021/04/19 11:15:10;;;;;;;2.85;2.55;;;;;;;;;;5075693;28;20186;-44
2021/04/19 11:17:36;;;;;;;4.70;3.13;;;;;;;;;;5059116;28;20260;-43
2021/04/19 11:20:18;;;;;;;2.88;2.60;;;;;;;;;;5058608;28;20174;-43
2021/04/19 11:22:44;;;;;;;3.17;2.67;;;;;;;;;;5072761;28;20175;-43
2021/04/19 11:25:16;;;;;;;4.82;2.85;;;;;;;;;;5066944;28;20474;-43
2021/04/19 11:27:43;;;;;;;3.47;3.10;;;;;;;;;;5064588;28;20569;-43
2021/04/19 11:30:18;;;;;;;2.80;2.50;;;;;;;;;;5061247;28;20578;-43
2021/04/19 11:32:45;;;;;;;3.45;2.67;;;;;;;;;;5056938;28;20240;-43
2021/04/19 11:35:23;;;;;;;3.00;2.75;;;;;;;;;;5056211;28;20186;-43
2021/04/19 11:37:58;;;;;;;3.80;2.70;;;;;;;;;;5065703;28;20441;-43
2021/04/19 11:40:31;;;;;;;3.90;2.70;;;;;;;;;;5068090;28;20461;-43
2021/04/19 11:42:57;;;;;;;3.47;2.63;;;;;;;;;;5066563;28;20187;-43
2021/04/19 11:45:24;;;;;;;4.07;2.60;;;;;;;;;;5076007;28;20232;-43
2021/04/19 11:47:51;;;;;;;3.65;3.10;;;;;;;;;;5066286;28;20763;-43
2021/04/19 11:50:17;;;;;;;3.53;2.97;;;;;;;;;;5064259;28;20183;-44
2021/04/19 11:52:51;;;;;;;5.15;2.90;;;;;;;;;;5074767;28;20618;-44
2021/04/19 11:55:18;;;;;;;3.55;2.78;;;;;;;;;;5074210;28;20473;-44
2021/04/19 11:57:44;;;;;;;4.05;3.20;;;;;;;;;;5063766;28;20192;-44
2021/04/19 12:00:14;;;;;;;5.90;2.65;;;;;;;;;;5075283;28;20179;-44
2021/04/19 12:02:40;;;;;;;3.30;2.83;;;;;;;;;;5062940;28;20179;-44
2021/04/19 12:05:07;;;;;;;4.43;3.00;;;;;;;;;;5067853;28;20193;-44
2021/04/19 12:07:34;;;;;;;6.20;3.00;;;;;;;;;;5056730;28;20469;-44
2021/04/19 12:10:00;;;;;;;3.40;2.75;;;;;;;;;;5055623;28;20171;-44
2021/04/19 12:12:26;;;;;;;9.93;3.45;;;;;;;;;;5061668;28;20220;-44
2021/04/19 12:14:52;;;;;;;11.50;3.33;;;;;;;;;;5062142;28;20217;-44
2021/04/19 12:17:18;;;;;;;8.07;3.22;;;;;;;;;;5062640;28;20216;-44
2021/04/19 12:19:44;;;;;;;4.20;2.78;;;;;;;;;;5073678;28;20174;-44
2021/04/19 12:22:11;;;;;;;5.10;3.45;;;;;;;;;;5074892;28;20173;-44
2021/04/19 12:24:37;;;;;;;5.57;3.38;;;;;;;;;;5075067;28;20557;-44
2021/04/19 12:27:03;;;;;;;5.20;3.40;;;;;;;;;;5065085;28;20214;-44
2021/04/19 12:29:29;;;;;;;5.20;3.45;;;;;;;;;;5056997;28;20171;-44
2021/04/19 12:31:55;;;;;;;5.15;3.15;;;;;;;;;;5058626;28;20185;-44
2021/04/19 12:34:21;;;;;;;7.00;3.78;;;;;;;;;;5075168;28;20163;-44
2021/04/19 12:36:50;;;;;;;5.53;3.50;;;;;;;;;;5070489;28;20179;-44
2021/04/19 12:39:16;;;;;;;5.35;3.42;;;;;;;;;;5055539;28;20174;-44
2021/04/19 12:41:42;;;;;;;5.75;3.53;;;;;;;;;;5072215;28;20178;-44
2021/04/19 12:44:08;;;;;;;6.13;3.25;;;;;;;;;;5072015;28;20498;-44
2021/04/19 12:46:34;;;;;;;4.70;3.90;;;;;;;;;;5072833;28;20198;-44
2021/04/19 12:49:00;;;;;;;4.50;3.90;;;;;;;;;;5074527;28;20178;-44
2021/04/19 12:51:27;;;;;;;6.93;4.20;;;;;;;;;;5065068;28;20189;-43
2021/04/19 12:53:54;;;;;;;5.20;4.25;;;;;;;;;;5070913;28;20205;-43
2021/04/19 12:56:20;;;;;;;7.38;4.20;;;;;;;;;;5066779;28;20190;-43
2021/04/19 12:58:46;;;;;;;5.00;3.85;;;;;;;;;;5063684;28;20204;-43
2021/04/19 13:01:12;;;;;;;5.72;3.67;;;;;;;;;;5063695;28;20181;-43
2021/04/19 13:03:38;;;;;;;7.53;4.57;;;;;;;;;;5060815;28;20278;-44
2021/04/19 13:06:04;;;;;;;7.70;4.57;;;;;;;;;;5054763;28;20621;-44
2021/04/19 13:08:30;;;;;;;8.45;4.90;;;;;;;;;;5063839;28;20225;-44
2021/04/19 13:10:57;;;;;;;7.70;4.60;;;;;;;;;;5068671;28;20214;-44
2021/04/19 13:13:23;;;;;;;5.72;4.80;;;;;;;;;;5068332;28;20236;-44
2021/04/19 13:15:49;;;;;;;5.18;4.68;;;;;;;;;;5073463;28;20194;-44
2021/04/19 13:18:15;;;;;;;6.47;4.82;;;;;;;;;;5083018;28;20201;-44
2021/04/19 13:20:41;;;;;;;5.85;5.28;;;;;;;;;;5085799;28;20265;-44
2021/04/19 13:23:07;;;;;;;5.80;5.13;;;;;;;;;;5065667;28;20243;-44
2021/04/19 13:25:34;;;;;;;6.68;4.85;;;;;;;;;;5069467;28;20187;-44
2021/04/19 13:28:00;;;;;;;5.60;5.10;;;;;;;;;;5069987;28;20573;-44
2021/04/19 13:30:26;;;;;;;5.60;5.07;;;;;;;;;;5056474;28;20471;-44
2021/04/19 13:32:53;;;;;;;8.10;5.40;;;;;;;;;;5053872;28;20171;-44
2021/04/19 13:35:19;;;;;;;8.00;5.45;;;;;;;;;;5054731;28;20178;-44
2021/04/19 13:37:45;;;;;;;7.28;5.47;;;;;;;;;;5054297;28;20702;-44
2021/04/19 13:40:13;;;;;;;7.28;5.18;;;;;;;;;;5064289;28;20293;-44
2021/04/19 13:42:40;;;;;;;7.53;5.38;;;;;;;;;;5062015;28;20431;-44
2021/04/19 13:45:08;;;;;;;8.05;5.40;;;;;;;;;;5057723;28;20179;-44
2021/04/19 13:47:34;;;;;;;5.95;5.25;;;;;;;;;;5073013;28;20202;-44
2021/04/19 13:50:00;;;;;;;7.22;5.72;;;;;;;;;;5074101;28;20561;-44
2021/04/19 13:52:26;;;;;;;6.90;5.97;;;;;;;;;;5077492;28;20205;-44
2021/04/19 13:54:52;;;;;;;6.90;5.95;;;;;;;;;;5079201;28;20275;-44
2021/04/19 13:57:19;;;;;;;8.20;6.30;;;;;;;;;;5072357;28;20203;-44
2021/04/19 13:59:45;;;;;;;7.55;5.85;;;;;;;;;;5074239;28;20167;-44
2021/04/19 14:02:11;;;;;;;7.07;5.70;;;;;;;;;;5068383;28;20167;-44
2021/04/19 14:04:37;;;;;;;6.18;5.55;;;;;;;;;;5069528;28;20719;-44
2021/04/19 14:07:03;;;;;;;7.20;5.35;;;;;;;;;;5070785;28;20229;-44
2021/04/19 14:09:29;;;;;;;5.68;5.10;;;;;;;;;;5073361;28;20263;-45
2021/04/19 14:11:56;;;;;;;6.40;5.47;;;;;;;;;;5068591;28;20191;-44
2021/04/19 14:14:22;;;;;;;5.65;5.07;;;;;;;;;;5067713;28;20179;-44
2021/04/19 14:16:48;;;;;;;5.72;5.15;;;;;;;;;;5057735;28;20602;-44
2021/04/19 14:19:14;;;;;;;6.25;5.40;;;;;;;;;;5072695;28;20217;-44
2021/04/19 14:21:40;;;;;;;6.22;5.60;;;;;;;;;;5066881;28;20174;-44
2021/04/19 14:24:08;;;;;;;6.93;5.50;;;;;;;;;;5058914;28;20172;-44
2021/04/19 14:26:35;;;;;;;6.30;5.70;;;;;;;;;;5058408;28;20173;-44
2021/04/19 14:29:01;;;;;;;9.65;6.55;;;;;;;;;;5074168;28;20178;-44
2021/04/19 14:31:27;;;;;;;8.98;5.88;;;;;;;;;;5070771;28;20179;-44
2021/04/19 14:33:53;;;;;;;6.63;5.88;;;;;;;;;;5065727;28;20231;-44
2021/04/19 14:36:19;;;;;;;5.80;5.30;;;;;;;;;;5066370;28;20182;-44
2021/04/19 14:38:45;;;;;;;7.03;5.97;;;;;;;;;;5077407;28;20457;-44
2021/04/19 14:41:11;;;;;;;7.40;6.30;;;;;;;;;;5071196;28;20229;-44
2021/04/19 14:43:38;;;;;;;7.85;5.88;;;;;;;;;;5072531;28;20179;-44
2021/04/19 14:46:04;;;;;;;6.38;5.78;;;;;;;;;;5077252;28;20158;-43
2021/04/19 14:48:30;;;;;;;6.93;5.55;;;;;;;;;;5062303;28;20222;-43
2021/04/19 14:50:56;;;;;;;6.07;5.47;;;;;;;;;;5062531;28;20214;-44
2021/04/19 14:53:22;;;;;;;6.68;5.78;;;;;;;;;;5062302;28;20566;-43